Time;durP1;ratioP1;P1;durP2;ratioP2;P2;SDS_P1;SDS_P2;PMS_P1;PMS_P2;Temp;Humidity;BMP_temperature;BMP_pressure;BME280_temperature;BME280_humidity;BME280_pressure;Samples;Min_cycle;Max_cycle;Signal;HPM_P1;HPM_P2
2023/02/20 00:00:34;;;;;;;;;;;;;;;-3.80;64.78;97916.91;4746091;30;19926;-83
2023/02/20 00:03:09;;;;;;;;;;;;;;;-3.97;63.33;97917.47;4748005;30;19953;-83
2023/02/20 00:05:49;;;;;;;;;;;;;;;-3.91;64.73;97920.94;4745896;30;19930;-81
2023/02/20 00:08:22;;;;;;;;;;;;;;;-3.88;64.92;97923.56;4747089;30;21006;-81
2023/02/20 00:10:52;;;;;;;;;;;;;;;-3.94;65.17;97921.72;4731951;30;19926;-84
2023/02/20 00:13:24;;;;;;;;;;;;;;;-3.90;64.72;97927.75;4731041;30;20076;-82
2023/02/20 00:15:50;;;;;;;;;;;;;;;-4.02;64.58;97923.28;4746532;30;19933;-84
2023/02/20 00:18:28;;;;;;;;;;;;;;;-4.10;64.23;97916.38;4746296;30;19930;-82
2023/02/20 00:21:08;;;;;;;;;;;;;;;-4.06;65.43;97913.88;4745957;30;19927;-81
2023/02/20 00:23:37;;;;;;;;;;;;;;;-3.87;65.17;97917.66;4731500;30;19926;-83
2023/02/20 00:26:07;;;;;;;;;;;;;;;-3.85;65.63;97916.84;4745634;30;19931;-84
2023/02/20 00:28:40;;;;;;;;;;;;;;;-3.81;65.31;97917.75;4746169;30;19953;-84
2023/02/20 00:31:14;;;;;;;;;;;;;;;-3.63;65.48;97918.06;4751389;30;19952;-83
2023/02/20 00:33:42;;;;;;;;;;;;;;;-3.82;65.50;97916.91;4751239;30;19950;-82
2023/02/20 00:36:22;;;;;;;;;;;;;;;-3.69;65.64;97919.66;4736777;30;19934;-81
2023/02/20 00:38:53;;;;;;;;;;;;;;;-3.68;64.37;97904.44;4738984;30;20038;-81
2023/02/20 00:41:24;;;;;;;;;;;;;;;-3.81;64.48;97910.09;4753751;30;20736;-81
2023/02/20 00:43:59;;;;;;;;;;;;;;;-3.75;65.39;97905.16;4752047;30;19995;-84
2023/02/20 00:46:26;;;;;;;;;;;;;;;-3.59;65.60;97907.94;4744505;30;19960;-86
2023/02/20 00:48:52;;;;;;;;;;;;;;;-3.58;65.05;97907.13;4730638;30;19926;-83
2023/02/20 00:51:37;;;;;;;;;;;;;;;-3.49;65.11;97904.75;4747048;30;19926;-82
2023/02/20 00:54:05;;;;;;;;;;;;;;;-3.43;65.22;97904.84;4750624;30;20021;-81
2023/02/20 00:56:34;;;;;;;;;;;;;;;-3.43;65.03;97902.31;4730013;30;19961;-84
2023/02/20 00:59:02;;;;;;;;;;;;;;;-3.33;65.54;97906.72;4746692;30;19907;-83
2023/02/20 01:01:42;;;;;;;;;;;;;;;-3.36;64.90;97896.47;4743549;30;19942;-80
2023/02/20 01:07:33;;;;;;;;;;;;;;;-3.49;64.95;97900.50;4711537;30;19935;-82
2023/02/20 01:10:00;;;;;;;;;;;;;;;-3.44;64.56;97899.72;4728433;30;20026;-85
2023/02/20 01:12:33;;;;;;;;;;;;;;;-3.34;65.12;97904.16;4744689;30;20108;-84
2023/02/20 01:15:03;;;;;;;;;;;;;;;-3.25;64.72;97901.72;4728099;30;19934;-82
2023/02/20 01:17:51;;;;;;;;;;;;;;;-3.18;64.73;97906.09;4717873;30;19926;-81
2023/02/20 01:20:28;;;;;;;;;;;;;;;-3.12;64.69;97907.03;4743033;30;19933;-82
2023/02/20 01:23:05;;;;;;;;;;;;;;;-3.03;64.99;97902.94;4744208;30;19965;-81
2023/02/20 01:25:56;;;;;;;;;;;;;;;-2.97;65.02;97906.38;4744617;30;20435;-81
2023/02/20 01:28:22;;;;;;;;;;;;;;;-2.96;64.32;97908.09;4745530;30;19933;-81
2023/02/20 01:30:53;;;;;;;;;;;;;;;-2.92;64.79;97907.31;4747543;30;20407;-80
2023/02/20 01:33:24;;;;;;;;;;;;;;;-2.94;64.37;97903.91;4735965;30;19970;-81
2023/02/20 01:36:00;;;;;;;;;;;;;;;-2.98;64.12;97912.34;4733242;30;19933;-80
2023/02/20 01:38:27;;;;;;;;;;;;;;;-2.98;64.29;97914.88;4748713;30;19930;-82
2023/02/20 01:40:57;;;;;;;;;;;;;;;-2.99;64.59;97914.00;4745761;30;19961;-81
2023/02/20 01:43:25;;;;;;;;;;;;;;;-3.07;63.62;97906.28;4727960;30;19977;-82
2023/02/20 01:46:27;;;;;;;;;;;;;;;-3.08;64.21;97904.56;4742535;30;19930;-79
2023/02/20 01:49:05;;;;;;;;;;;;;;;-3.10;64.42;97913.00;4706764;30;20013;-79
2023/02/20 01:51:41;;;;;;;;;;;;;;;-3.09;64.50;97912.19;4742768;30;19973;-81
2023/02/20 01:54:10;;;;;;;;;;;;;;;-3.02;64.69;97916.50;4740926;30;20021;-81
2023/02/20 01:56:48;;;;;;;;;;;;;;;-2.97;64.54;97926.75;4711125;30;19974;-81
2023/02/20 01:59:29;;;;;;;;;;;;;;;-2.97;64.60;97914.91;4730027;30;19927;-81
2023/02/20 02:02:06;;;;;;;;;;;;;;;-3.01;64.58;97914.84;4741709;30;19989;-83
2023/02/20 02:04:33;;;;;;;;;;;;;;;-3.05;64.18;97921.53;4742553;30;19949;-82
2023/02/20 02:07:14;;;;;;;;;;;;;;;-3.03;64.49;97913.13;4736203;30;19937;-82
2023/02/20 02:10:14;;;;;;;;;;;;;;;-2.97;64.32;97924.19;4739506;30;19926;-81
2023/02/20 02:12:50;;;;;;;;;;;;;;;-2.95;64.29;97917.44;4738859;30;19927;-81
2023/02/20 02:15:20;;;;;;;;;;;;;;;-2.96;64.49;97920.81;4726983;30;19927;-84
2023/02/20 02:17:58;;;;;;;;;;;;;;;-2.98;64.15;97925.06;4743229;30;19952;-80
2023/02/20 02:20:37;;;;;;;;;;;;;;;-2.97;64.58;97929.28;4727868;30;19926;-82
2023/02/20 02:23:21;;;;;;;;;;;;;;;-2.92;64.15;97923.47;4747532;30;19992;-82
2023/02/20 02:25:59;;;;;;;;;;;;;;;-2.85;64.62;97918.44;4744859;30;19963;-82
2023/02/20 02:28:43;;;;;;;;;;;;;;;-3.00;63.72;97919.94;4740362;30;19958;-80
2023/02/20 02:31:21;;;;;;;;;;;;;;;-3.07;64.44;97919.00;4719235;30;19926;-81
2023/02/20 02:34:23;;;;;;;;;;;;;;;-3.00;64.33;97925.03;4726787;30;19974;-81
2023/02/20 02:37:02;;;;;;;;;;;;;;;-2.95;64.65;97930.19;4725898;30;19957;-80
2023/02/20 02:39:40;;;;;;;;;;;;;;;-3.00;63.99;97934.38;4747666;30;19959;-82
2023/02/20 02:42:08;;;;;;;;;;;;;;;-3.05;63.97;97940.25;4742623;30;19927;-82
2023/02/20 02:44:47;;;;;;;;;;;;;;;-3.14;63.96;97932.44;4728106;30;19926;-83
2023/02/20 02:47:19;;;;;;;;;;;;;;;-3.10;64.59;97931.66;4741976;30;19981;-82
2023/02/20 02:49:55;;;;;;;;;;;;;;;-3.20;64.17;97943.38;4743078;30;19986;-81
2023/02/20 02:55:12;;;;;;;;;;;;;;;-3.10;64.28;97939.28;4727011;30;19926;-83
2023/02/20 02:57:50;;;;;;;;;;;;;;;-3.08;63.98;97942.72;4742533;30;19961;-85
2023/02/20 03:00:26;;;;;;;;;;;;;;;-3.06;64.02;97941.06;4741451;30;19981;-84
2023/02/20 03:03:07;;;;;;;;;;;;;;;-3.10;63.90;97948.63;4742680;30;20292;-84
2023/02/20 03:06:05;;;;;;;;;;;;;;;-3.07;64.37;97944.44;4744354;30;19931;-85
2023/02/20 03:08:56;;;;;;;;;;;;;;;-2.99;64.06;97947.09;4727156;30;19931;-82
2023/02/20 03:11:37;;;;;;;;;;;;;;;-2.97;64.15;97948.00;4725175;30;19927;-82
2023/02/20 03:17:18;;;;;;;;;;;;;;;-2.99;64.10;97956.44;4729249;30;19958;-81
2023/02/20 03:19:47;;;;;;;;;;;;;;;-2.98;64.14;97948.81;4727647;30;19927;-82
2023/02/20 03:22:43;;;;;;;;;;;;;;;-3.00;63.62;97955.56;4730002;30;19965;-88
2023/02/20 03:25:41;;;;;;;;;;;;;;;-3.04;63.76;97951.25;4730382;30;20001;-85
2023/02/20 03:28:13;;;;;;;;;;;;;;;-3.04;64.12;97961.44;4726931;30;19927;-84
2023/02/20 03:31:15;;;;;;;;;;;;;;;-3.08;63.62;97958.00;4715457;30;19933;-82
2023/02/20 03:43:32;;;;;;;;;;;;;;;-3.33;64.10;97960.13;4723981;30;19927;-82
2023/02/20 03:46:21;;;;;;;;;;;;;;;-3.35;64.13;97966.88;4725812;30;19935;-86
2023/02/20 03:49:05;;;;;;;;;;;;;;;-3.40;63.66;97965.94;4733633;30;19934;-84
2023/02/20 03:51:34;;;;;;;;;;;;;;;-3.48;64.31;97965.81;4720731;30;19967;-83
2023/02/20 03:57:12;;;;;;;;;;;;;;;-4.01;62.51;97958.03;4749094;30;19949;-81
2023/02/20 04:00:02;;;;;;;;;;;;;;;-4.06;63.47;97965.53;4736650;30;20374;-82
2023/02/20 04:02:59;;;;;;;;;;;;;;;-4.22;64.37;97968.63;4710187;30;20034;-80
2023/02/20 04:05:36;;;;;;;;;;;;;;;-4.20;64.02;97964.41;4713768;30;19938;-84
2023/02/20 04:08:13;;;;;;;;;;;;;;;-4.14;64.61;97969.63;4728816;30;19930;-86
2023/02/20 04:11:12;;;;;;;;;;;;;;;-4.13;64.15;97966.28;4741592;30;20339;-86
2023/02/20 04:13:59;;;;;;;;;;;;;;;-4.19;64.41;97966.13;4720192;30;19926;-88
2023/02/20 04:19:15;;;;;;;;;;;;;;;-4.82;63.01;97955.47;4748912;30;19937;-84
2023/02/20 04:21:47;;;;;;;;;;;;;;;-5.02;63.78;97966.88;4731673;30;19939;-85
2023/02/20 04:24:22;;;;;;;;;;;;;;;-5.02;64.38;97963.47;4734512;30;19927;-85
2023/02/20 04:27:04;;;;;;;;;;;;;;;;;;;;;
2023/02/20 04:29:47;;;;;;;;;;;;;;;-4.59;65.25;97973.75;4755223;30;19926;-82
2023/02/20 04:32:36;;;;;;;;;;;;;;;-4.49;64.43;97978.22;4756358;30;19965;-83
2023/02/20 04:35:14;;;;;;;;;;;;;;;-4.51;64.93;97984.06;4750587;30;19926;-85
2023/02/20 04:37:53;;;;;;;;;;;;;;;-4.43;64.92;97975.81;4747767;30;20368;-86
2023/02/20 04:40:31;;;;;;;;;;;;;;;-4.48;64.54;97984.16;4749290;30;19926;-84
2023/02/20 04:43:01;;;;;;;;;;;;;;;-4.49;64.10;97987.50;4743549;30;19958;-84
2023/02/20 04:45:35;;;;;;;;;;;;;;;-4.43;64.16;97988.53;4747344;30;19966;-87
2023/02/20 04:48:03;;;;;;;;;;;;;;;-4.64;63.99;97986.34;4737375;30;19926;-84
2023/02/20 04:50:49;;;;;;;;;;;;;;;-4.69;64.08;97993.00;4722480;30;19977;-83
2023/02/20 04:53:39;;;;;;;;;;;;;;;-4.65;64.60;97987.16;4731063;30;19927;-84
2023/02/20 04:56:07;;;;;;;;;;;;;;;-4.81;64.19;97955.50;4735550;30;20015;-85
2023/02/20 04:58:52;;;;;;;;;;;;;;;-4.75;63.18;97985.25;4739157;30;19961;-85
2023/02/20 05:01:31;;;;;;;;;;;;;;;-4.73;64.02;97986.13;4749422;30;19961;-86
2023/02/20 05:04:05;;;;;;;;;;;;;;;-4.68;64.20;97989.63;4736023;30;19932;-86
2023/02/20 05:06:41;;;;;;;;;;;;;;;-4.58;64.01;97983.97;4738911;30;19981;-84
2023/02/20 05:09:10;;;;;;;;;;;;;;;-4.53;63.89;97986.59;4719021;30;19933;-85
2023/02/20 05:11:42;;;;;;;;;;;;;;;-4.60;64.03;97988.13;4732296;30;19931;-83
2023/02/20 05:14:41;;;;;;;;;;;;;;;-4.61;64.30;97983.88;4746567;30;19953;-85
2023/02/20 05:17:16;;;;;;;;;;;;;;;-4.67;63.47;97975.28;4729335;30;19937;-85
2023/02/20 05:19:44;;;;;;;;;;;;;;;-4.64;62.49;97977.91;4742484;30;20392;-85
2023/02/20 05:22:21;;;;;;;;;;;;;;;-4.63;62.70;97980.44;4756788;30;19918;-84
2023/02/20 05:24:48;;;;;;;;;;;;;;;-4.70;62.47;97989.63;4733166;30;19933;-84
2023/02/20 05:27:19;;;;;;;;;;;;;;;-4.27;64.25;97979.53;4722627;30;19942;-86
2023/02/20 05:29:53;;;;;;;;;;;;;;;-3.72;63.16;97983.16;4738070;30;19985;-85
2023/02/20 05:32:23;;;;;;;;;;;;;;;-3.16;63.90;97990.09;4738783;30;19926;-86
2023/02/20 05:35:16;;;;;;;;;;;;;;;-3.17;63.69;97993.47;4739342;30;19958;-85
2023/02/20 05:37:59;;;;;;;;;;;;;;;-2.80;63.62;97998.31;4738921;30;19926;-86
2023/02/20 05:40:26;;;;;;;;;;;;;;;-2.75;63.34;98002.63;4738657;30;20004;-84
2023/02/20 05:43:01;;;;;;;;;;;;;;;-2.68;63.59;98002.72;4723172;30;20419;-84
2023/02/20 05:49:04;;;;;;;;;;;;;;;-2.91;63.00;98008.31;4693162;30;19927;-85
2023/02/20 05:52:11;;;;;;;;;;;;;;;-2.92;63.10;98019.31;4746613;30;19950;-83
2023/02/20 05:54:41;;;;;;;;;;;;;;;-2.76;63.20;98011.09;4729807;30;19934;-86
2023/02/20 05:57:29;;;;;;;;;;;;;;;-2.94;62.25;98000.63;4738703;30;19944;-87
2023/02/20 06:00:18;;;;;;;;;;;;;;;-3.21;62.63;98012.91;4742516;30;19930;-86
2023/02/20 06:03:30;;;;;;;;;;;;;;;-3.34;62.55;98016.94;4727857;30;19961;-83
2023/02/20 06:16:37;;;;;;;;;;;;;;;-2.57;62.24;98008.84;4852082;24;19959;-85
2023/02/20 06:19:41;;;;;;;;;;;;;;;-2.59;62.11;98013.91;4740952;30;19930;-83
2023/02/20 06:22:49;;;;;;;;;;;;;;;-2.42;62.30;98019.25;4754973;30;20022;-86
2023/02/20 06:25:15;;;;;;;;;;;;;;;-2.29;62.68;98016.88;4755516;30;19937;-85
2023/02/20 06:27:42;;;;;;;;;;;;;;;-2.25;62.15;98010.16;4726843;30;19933;-85
2023/02/20 06:30:08;;;;;;;;;;;;;;;-2.31;61.99;98018.53;4758866;30;20018;-86
2023/02/20 06:33:03;;;;;;;;;;;;;;;-2.29;61.73;98032.16;4733335;30;20003;-85
2023/02/20 06:35:39;;;;;;;;;;;;;;;-2.30;62.03;98021.13;4743330;30;19933;-83
2023/02/20 06:42:06;;;;;;;;;;;;;;;-2.54;61.70;98020.78;4702536;30;19938;-88
2023/02/20 06:48:47;;;;;;;;;;;;;;;-2.61;61.66;98017.28;4668589;30;19936;-84
2023/02/20 06:51:43;;;;;;;;;;;;;;;-2.43;62.08;98020.09;4667238;30;19928;-83
2023/02/20 06:54:12;;;;;;;;;;;;;;;-2.32;61.73;98020.25;4656926;30;19936;-82
2023/02/20 06:57:06;;;;;;;;;;;;;;;-2.33;61.58;98025.34;4658032;30;19928;-86
2023/02/20 06:59:46;;;;;;;;;;;;;;;-2.23;61.54;98029.72;4724116;30;19933;-85
2023/02/20 07:02:24;;;;;;;;;;;;;;;-2.28;60.92;98026.25;4766336;30;19958;-86
2023/02/20 07:05:06;;;;;;;;;;;;;;;-2.49;61.09;98029.34;4743975;30;19933;-86
2023/02/20 07:07:41;;;;;;;;;;;;;;;-2.33;61.54;98033.81;4751935;30;19930;-83
2023/02/20 07:10:18;;;;;;;;;;;;;;;-2.09;61.76;98029.91;4767119;30;19957;-88
2023/02/20 07:12:48;;;;;;;;;;;;;;;-2.13;60.95;98035.78;4758748;30;19937;-88
2023/02/20 07:15:44;;;;;;;;;;;;;;;-2.03;61.40;98032.56;4760066;30;19933;-85
2023/02/20 07:18:09;;;;;;;;;;;;;;;-1.82;61.02;98029.41;4760751;30;19930;-83
2023/02/20 07:20:35;;;;;;;;;;;;;;;-1.79;60.87;98028.59;4756689;30;19929;-85
2023/02/20 07:23:11;;;;;;;;;;;;;;;-1.66;61.17;98029.59;4775679;30;19961;-83
2023/02/20 07:25:37;;;;;;;;;;;;;;;-1.56;60.78;98033.13;4759454;30;19929;-84
2023/02/20 07:28:06;;;;;;;;;;;;;;;-1.39;60.55;98038.38;4757884;30;19947;-86
2023/02/20 07:30:49;;;;;;;;;;;;;;;-1.29;60.17;98034.22;4753778;30;20001;-84
2023/02/20 07:33:26;;;;;;;;;;;;;;;-1.48;58.86;98036.59;4766875;30;19926;-86
2023/02/20 07:36:04;;;;;;;;;;;;;;;-1.88;60.59;97987.69;4763292;30;19926;-85
2023/02/20 07:39:12;;;;;;;;;;;;;;;-1.35;60.34;98034.19;4750453;30;19926;-87
2023/02/20 07:41:50;;;;;;;;;;;;;;;-1.09;60.67;98044.66;4746159;30;19926;-86
2023/02/20 07:44:52;;;;;;;;;;;;;;;-0.94;60.52;98046.50;4756445;30;19948;-85
2023/02/20 07:51:06;;;;;;;;;;;;;;;-1.09;60.06;98042.94;4741033;30;19930;-86
2023/02/20 07:54:13;;;;;;;;;;;;;;;-1.07;59.87;98043.81;4761401;30;20061;-88
2023/02/20 07:56:44;;;;;;;;;;;;;;;-0.93;59.74;98049.06;4758836;30;19965;-84
2023/02/20 07:59:10;;;;;;;;;;;;;;;-0.85;59.79;98043.19;4735293;30;19983;-85
2023/02/20 08:02:16;;;;;;;;;;;;;;;-0.72;59.04;98047.53;4756553;30;19941;-86
2023/02/20 08:05:21;;;;;;;;;;;;;;;;;;;;;
2023/02/20 08:08:12;;;;;;;;;;;;;;;-0.67;59.32;98051.00;4929253;24;19960;-88
2023/02/20 08:10:43;;;;;;;;;;;;;;;-0.54;58.41;98049.41;4754161;30;19953;-84
2023/02/20 08:13:09;;;;;;;;;;;;;;;-0.66;59.52;98055.25;4754858;30;20021;-85
2023/02/20 08:15:35;;;;;;;;;;;;;;;-0.55;59.29;98057.06;4773541;29;19961;-86
2023/02/20 08:18:01;;;;;;;;;;;;;;;-0.36;59.61;98050.38;4772585;30;19956;-85
2023/02/20 08:20:40;;;;;;;;;;;;;;;;;;;;;
2023/02/20 08:23:20;;;;;;;;;;;;;;;-0.05;58.95;98048.88;4736374;30;19930;-92
2023/02/20 08:27:04;;;;;;;;;;;;;;;-0.12;57.76;98059.06;4753863;30;20113;-84
2023/02/20 08:29:41;;;;;;;;;;;;;;;-0.56;58.62;98063.00;4748243;30;19934;-83
2023/02/20 08:33:01;;;;;;;;;;;;;;;-0.42;58.63;98052.88;4729378;30;19926;-84
2023/02/20 08:35:37;;;;;;;;;;;;;;;-0.27;58.80;98058.13;4757534;30;19969;-84
2023/02/20 08:38:28;;;;;;;;;;;;;;;-0.13;58.55;98053.09;4757655;30;20310;-87
2023/02/20 08:41:07;;;;;;;;;;;;;;;;;;;;;
2023/02/20 08:51:29;;;;;;;;;;;;;;;0.67;57.77;98072.22;4757141;30;19933;-87
2023/02/20 08:54:47;;;;;;;;;;;;;;;0.92;58.17;98077.41;4712801;30;19927;-85
2023/02/20 09:02:23;;;;;;;;;;;;;;;1.19;56.67;98080.03;4729013;30;20024;-86
2023/02/20 09:12:09;;;;;;;;;;;;;;;1.61;57.42;98069.78;5034504;24;19937;-86
2023/02/20 09:14:59;;;;;;;;;;;;;;;1.63;56.72;98064.66;4750204;30;19925;-85
2023/02/20 09:17:56;;;;;;;;;;;;;;;;;;;;;
2023/02/20 09:20:32;;;;;;;;;;;;;;;;;;;;;
2023/02/20 09:23:41;;;;;;;;;;;;;;;2.16;56.21;98062.00;4784747;30;19960;-84
2023/02/20 09:27:15;;;;;;;;;;;;;;;2.31;56.28;98061.97;4761258;30;19938;-85
2023/02/20 09:31:07;;;;;;;;;;;;;;;;;;;;;
2023/02/20 09:50:38;;;;;;;;;;;;;;;2.26;54.50;98046.56;4676981;30;19927;-86
2023/02/20 09:54:36;;;;;;;;;;;;;;;2.13;54.36;98064.56;4692914;30;19939;-85
2023/02/20 10:28:04;;;;;;;;;;;;;;;1.44;53.47;98074.91;4721716;30;19962;-84
2023/02/20 10:43:51;;;;;;;;;;;;;;;1.34;53.62;98066.34;4694522;30;19938;-84
2023/02/20 10:46:50;;;;;;;;;;;;;;;1.34;53.77;98065.50;4677948;30;19932;-81
2023/02/20 10:53:00;;;;;;;;;;;;;;;1.61;53.51;98071.50;4693444;30;19955;-88
2023/02/20 10:56:21;;;;;;;;;;;;;;;1.64;53.97;98061.25;4682948;30;19911;-83
2023/02/20 11:00:01;;;;;;;;;;;;;;;;;;;;;
2023/02/20 11:11:18;;;;;;;;;;;;;;;2.07;52.40;98066.31;4704246;30;19934;-87
2023/02/20 11:14:30;;;;;;;;;;;;;;;1.97;53.05;98054.34;4689869;30;20056;-86
2023/02/20 11:35:20;;;;;;;;;;;;;;;1.39;53.60;98063.81;4698892;30;19958;-85
2023/02/20 12:35:15;;;;;;;;;;;;;;;0.62;52.62;98095.25;4943377;24;20444;-83
2023/02/20 12:37:51;;;;;;;;;;;;;;;0.55;52.33;98084.09;4792574;29;19960;-83
2023/02/20 12:40:56;;;;;;;;;;;;;;;0.14;50.85;98082.22;4785478;29;19949;-85
2023/02/20 12:47:27;;;;;;;;;;;;;;;0.24;53.15;98083.13;4720912;30;19938;-88
2023/02/20 12:53:43;;;;;;;;;;;;;;;0.21;53.19;98081.41;4719008;30;19984;-87
2023/02/20 12:56:41;;;;;;;;;;;;;;;;;;;;;
2023/02/20 12:59:30;;;;;;;;;;;;;;;-0.16;53.02;98083.75;4769077;29;20028;-87
2023/02/20 13:02:18;;;;;;;;;;;;;;;-0.25;52.81;98094.78;4809613;29;20349;-88
2023/02/20 13:05:03;;;;;;;;;;;;;;;-0.44;53.30;98103.16;4772363;29;19960;-83
2023/02/20 13:07:57;;;;;;;;;;;;;;;-0.42;53.58;98099.75;4777218;29;20000;-85
2023/02/20 13:14:06;;;;;;;;;;;;;;;-0.51;53.58;98097.97;5270725;24;19933;-83
2023/02/20 13:16:43;;;;;;;;;;;;;;;-0.56;53.58;98091.97;4761586;30;19926;-85
2023/02/20 13:19:16;;;;;;;;;;;;;;;-0.49;53.43;98085.19;4759323;30;19932;-87
2023/02/20 13:21:52;;;;;;;;;;;;;;;;;;;;;
2023/02/20 13:25:10;;;;;;;;;;;;;;;-0.54;53.47;98089.41;4771013;30;20203;-89
2023/02/20 13:28:17;;;;;;;;;;;;;;;-0.57;53.25;98089.41;4744051;30;20030;-86
2023/02/20 13:30:45;;;;;;;;;;;;;;;-0.57;54.05;98080.03;4761506;30;19937;-83
2023/02/20 13:33:21;;;;;;;;;;;;;;;-0.57;53.87;98085.13;4757060;30;20443;-82
2023/02/20 13:35:52;;;;;;;;;;;;;;;-0.66;54.29;98090.19;4757392;30;19926;-82
2023/02/20 13:38:33;;;;;;;;;;;;;;;-0.75;53.97;98085.81;4748621;30;19932;-85
2023/02/20 13:41:10;;;;;;;;;;;;;;;-0.83;53.43;98090.88;4778554;30;19965;-86
2023/02/20 13:43:41;;;;;;;;;;;;;;;-0.88;54.15;98094.22;4771563;30;19926;-82
2023/02/20 13:46:13;;;;;;;;;;;;;;;-0.98;53.92;98094.13;4755465;30;19940;-83
2023/02/20 13:48:44;;;;;;;;;;;;;;;-1.22;53.51;98090.50;4755999;30;20644;-84
2023/02/20 13:51:21;;;;;;;;;;;;;;;-1.25;53.93;98092.13;4742182;30;20045;-82
2023/02/20 13:53:48;;;;;;;;;;;;;;;-1.58;53.53;98088.38;4756023;30;20099;-85
2023/02/20 13:56:20;;;;;;;;;;;;;;;-1.66;54.37;98090.81;4755759;30;19926;-85
2023/02/20 13:58:53;;;;;;;;;;;;;;;-1.55;54.71;98094.34;4741659;30;19936;-83
2023/02/20 14:01:48;;;;;;;;;;;;;;;-1.47;54.45;98096.16;4742890;30;20310;-86
2023/02/20 14:04:48;;;;;;;;;;;;;;;-1.54;54.53;98090.97;4751358;30;19926;-84
2023/02/20 14:07:25;;;;;;;;;;;;;;;-1.58;54.57;98101.13;4744794;30;19952;-80
2023/02/20 14:10:03;;;;;;;;;;;;;;;-1.59;54.87;98097.69;4757133;30;19995;-81
2023/02/20 14:12:29;;;;;;;;;;;;;;;-1.60;54.72;98101.09;4770296;30;19937;-86
2023/02/20 14:15:59;;;;;;;;;;;;;;;-1.61;54.59;98104.47;5080318;27;19921;-84
2023/02/20 14:18:32;;;;;;;;;;;;;;;-1.61;54.31;98093.44;5106757;28;20325;-85
2023/02/20 14:21:09;;;;;;;;;;;;;;;-1.64;54.54;98098.50;5093285;28;20263;-84
2023/02/20 14:23:41;;;;;;;;;;;;;;;-1.93;54.27;98099.81;5090065;28;19954;-85
2023/02/20 14:26:31;;;;;;;;;;;;;;;-2.10;54.81;98108.94;5081699;28;19924;-83
2023/02/20 14:28:58;;;;;;;;;;;;;;;-2.00;55.23;98106.53;5084158;28;20030;-83
2023/02/20 14:31:32;;;;;;;;;;;;;;;-2.27;54.41;98107.81;5078851;28;19920;-81
2023/02/20 14:33:59;;;;;;;;;;;;;;;-2.55;54.80;98105.66;5102373;28;20018;-80
2023/02/20 14:36:25;;;;;;;;;;;;;;;-2.50;55.34;98104.91;5071910;28;19920;-83
2023/02/20 14:39:02;;;;;;;;;;;;;;;-2.43;55.11;98108.44;5109956;28;19963;-83
2023/02/20 14:41:29;;;;;;;;;;;;;;;-2.45;55.38;98107.53;5082792;28;19950;-84
2023/02/20 14:44:00;;;;;;;;;;;;;;;-2.50;55.50;98115.09;5075086;28;19927;-85
2023/02/20 14:46:27;;;;;;;;;;;;;;;-2.69;55.30;98113.06;5078707;28;19926;-85
2023/02/20 14:49:04;;;;;;;;;;;;;;;-2.66;55.46;98113.13;5072311;28;19920;-83
2023/02/20 14:51:30;;;;;;;;;;;;;;;-2.63;55.58;98119.13;5108874;28;20417;-84
2023/02/20 14:53:58;;;;;;;;;;;;;;;-2.63;55.51;98124.22;5095275;28;19924;-82
2023/02/20 14:56:28;;;;;;;;;;;;;;;-2.74;54.86;98121.47;5073646;28;19932;-87
2023/02/20 14:58:54;;;;;;;;;;;;;;;-2.91;55.52;98120.31;5131362;28;19904;-83
2023/02/20 15:01:37;;;;;;;;;;;;;;;-2.87;55.86;98117.84;5103101;28;20591;-83
2023/02/20 15:04:10;;;;;;;;;;;;;;;-2.83;56.17;98118.78;5071011;28;19920;-82
2023/02/20 15:06:46;;;;;;;;;;;;;;;-2.71;56.09;98128.34;5082189;28;19920;-84
2023/02/20 15:09:16;;;;;;;;;;;;;;;-2.61;56.10;98124.25;5064251;28;19928;-81
2023/02/20 15:12:01;;;;;;;;;;;;;;;-2.57;55.82;98123.47;5069033;28;19940;-84
2023/02/20 15:14:44;;;;;;;;;;;;;;;-2.66;55.46;98124.19;5097600;28;19935;-82
2023/02/20 15:20:34;;;;;;;;;;;;;;;-2.82;55.91;98125.59;5109659;28;19966;-88
2023/02/20 15:23:20;;;;;;;;;;;;;;;-2.96;55.34;98132.97;5098711;28;19920;-87
2023/02/20 15:25:46;;;;;;;;;;;;;;;-2.96;56.24;98127.00;5059754;28;19920;-82
2023/02/20 15:28:23;;;;;;;;;;;;;;;-2.89;56.70;98131.41;5089972;28;20055;-85
2023/02/20 15:30:59;;;;;;;;;;;;;;;-2.92;56.17;98132.22;5078795;28;20298;-84
2023/02/20 15:33:27;;;;;;;;;;;;;;;-2.90;56.48;98127.13;5076803;28;19920;-86
2023/02/20 15:35:53;;;;;;;;;;;;;;;-2.95;56.28;98131.28;5078146;28;19908;-84
2023/02/20 15:38:23;;;;;;;;;;;;;;;-3.17;55.99;98130.88;5087555;28;19921;-86
2023/02/20 15:44:29;;;;;;;;;;;;;;;-3.45;56.66;98121.84;5067477;28;19920;-84
2023/02/20 15:50:10;;;;;;;;;;;;;;;-3.48;56.94;98128.59;5062083;28;19921;-82
2023/02/20 15:52:51;;;;;;;;;;;;;;;-3.35;57.03;98127.16;5061697;28;19967;-83
2023/02/20 15:55:19;;;;;;;;;;;;;;;-3.40;56.10;98126.19;5074487;28;20015;-82
2023/02/20 15:57:49;;;;;;;;;;;;;;;-3.49;56.77;98123.47;5088860;28;19963;-85
2023/02/20 16:00:20;;;;;;;;;;;;;;;-3.51;56.87;98118.34;5112342;28;19920;-85
2023/02/20 16:06:00;;;;;;;;;;;;;;;-3.49;56.12;98110.75;5907225;23;19921;-84
2023/02/20 16:08:30;;;;;;;;;;;;;;;-3.42;57.05;98120.22;4965664;23;19932;-84
2023/02/20 16:14:46;;;;;;;;;;;;;;;-3.98;57.13;98121.59;4917481;29;19975;-82
2023/02/20 16:25:11;;;;;;;;;;;;;;;;;;;;;
2023/02/20 16:28:16;;;;;;;;;;;;;;;-3.58;57.26;98102.94;4974493;28;19928;-87
2023/02/20 16:30:44;;;;;;;;;;;;;;;-3.56;57.08;98101.28;4928024;29;19941;-84
2023/02/20 16:33:48;;;;;;;;;;;;;;;-3.62;56.57;98102.03;4956941;29;20010;-87
2023/02/20 16:36:21;;;;;;;;;;;;;;;-3.69;57.34;98100.16;4943108;28;19913;-85
2023/02/20 16:39:15;;;;;;;;;;;;;;;-3.67;57.31;98116.31;4942449;29;19923;-87
2023/02/20 16:42:23;;;;;;;;;;;;;;;-3.68;57.19;98109.50;4959438;29;19994;-83
2023/02/20 16:48:48;;;;;;;;;;;;;;;-3.66;57.18;98112.94;4896491;29;19969;-83
2023/02/20 17:15:49;;;;;;;;;;;;;;;-3.81;56.96;98090.59;4839868;29;19995;-87
2023/02/20 17:18:39;;;;;;;;;;;;;;;-4.04;56.13;98085.03;4855658;29;19948;-84
2023/02/20 17:25:04;;;;;;;;;;;;;;;;;;;;;
2023/02/20 17:28:37;;;;;;;;;;;;;;;-4.16;56.35;98063.59;4802866;29;19925;-85
2023/02/20 17:36:21;;;;;;;;;;;;;;;-4.17;56.39;98063.56;4753000;30;19976;-84
2023/02/20 18:37:13;;;;;;;;;;;;;;;-5.60;56.90;98034.72;4895080;23;19944;-88
2023/02/20 18:40:29;;;;;;;;;;;;;;;-5.61;57.07;98033.84;4792934;29;19941;-84
2023/02/20 18:43:54;;;;;;;;;;;;;;;-5.66;56.90;98034.56;4766750;29;19913;-89
2023/02/20 18:53:34;;;;;;;;;;;;;;;-5.77;56.35;98029.19;4844338;24;19933;-86
2023/02/20 19:02:29;;;;;;;;;;;;;;;-6.07;56.15;98023.31;1247289;27;19933;-86
2023/02/20 19:23:18;;;;;;;;;;;;;;;-5.87;57.37;98010.34;5730780;23;19933;-85
2023/02/20 19:48:31;;;;;;;;;;;;;;;-7.04;57.46;97984.94;4859443;24;19932;-84
2023/02/20 19:55:53;;;;;;;;;;;;;;;-7.04;57.74;97984.94;4809432;29;20011;-86
2023/02/20 19:59:10;;;;;;;;;;;;;;;-7.25;57.08;97985.97;4833411;29;20441;-83
2023/02/20 20:18:34;;;;;;;;;;;;;;;-7.14;57.89;97953.44;5602418;23;19934;-85
2023/02/20 20:24:58;;;;;;;;;;;;;;;-7.29;58.16;97939.53;4862384;29;19928;-85
2023/02/20 20:27:55;;;;;;;;;;;;;;;-7.42;58.19;97937.41;4852003;29;19924;-87
2023/02/20 20:30:52;;;;;;;;;;;;;;;-7.26;58.75;97938.75;4795763;29;19909;-85
2023/02/20 20:40:36;;;;;;;;;;;;;;;-7.34;59.07;97935.13;4748514;30;20425;-87
2023/02/20 20:43:33;;;;;;;;;;;;;;;;;;;;;
2023/02/20 20:46:14;;;;;;;;;;;;;;;-7.88;58.03;97922.44;4782027;30;19930;-86
2023/02/20 20:48:49;;;;;;;;;;;;;;;-7.74;59.23;97922.91;4760516;30;19906;-85
2023/02/20 20:51:32;;;;;;;;;;;;;;;-7.72;57.94;97917.91;4757362;30;19973;-84
2023/02/20 20:54:03;;;;;;;;;;;;;;;-7.74;59.09;97922.03;4783313;29;19939;-86
2023/02/20 20:56:43;;;;;;;;;;;;;;;-7.75;59.18;97923.72;4845724;29;19924;-87
2023/02/20 20:59:15;;;;;;;;;;;;;;;-7.90;58.42;97913.94;4838094;29;20345;-86
2023/02/20 21:02:08;;;;;;;;;;;;;;;-7.78;59.53;97913.50;4861844;29;19924;-87
2023/02/20 21:04:34;;;;;;;;;;;;;;;-7.73;58.20;97906.06;4850314;29;19928;-88
2023/02/20 21:07:10;;;;;;;;;;;;;;;-7.59;59.27;97907.38;4849040;29;20310;-84
2023/02/20 21:09:51;;;;;;;;;;;;;;;-7.60;59.13;97898.09;4816724;29;19917;-84
2023/02/20 21:19:42;;;;;;;;;;;;;;;-8.14;59.05;97895.44;4756814;30;19925;-85
2023/02/20 21:22:09;;;;;;;;;;;;;;;-8.12;58.76;97897.19;4767054;30;19938;-85
2023/02/20 21:25:02;;;;;;;;;;;;;;;;;;;;;
2023/02/20 21:28:02;;;;;;;;;;;;;;;-8.08;58.74;97883.88;4851488;29;19963;-89
2023/02/20 21:31:15;;;;;;;;;;;;;;;-8.39;58.27;97880.31;4835125;29;19993;-88
2023/02/20 21:34:01;;;;;;;;;;;;;;;-8.46;58.00;97875.84;4833030;29;19925;-85
2023/02/20 21:36:36;;;;;;;;;;;;;;;-8.38;58.71;97874.41;4833927;29;19928;-85
2023/02/20 21:39:03;;;;;;;;;;;;;;;-8.61;57.96;97877.84;4819422;29;19931;-89